Maersk Visby — 9V8827 — position and weather

sailwx.info

Track history (hours):
 
Tides and Currents Weather Stations Pressure Air Temp Water Temp Dewpoint Dewpoint Depression Visibility Wind Speed Wind Dir Waves Ship Positions

Maersk Visby

Last reported at 2016-Dec-04 10:26 UTC. Time now 2016-Dec-11 06:14 UTC.
Position N 36°49' W 075°46'.

Length 180 m; draft 9.1 m.

Type: Ship (hazmat cat A). MMSI: 564979000.

Date/timePositionNaut miles runAvg speedWind from/ knotsBaromVisibWave heightAir tempDewpointWater temp
2016-Dec-04 10:26N 36°49' W 075°46'7 8.6
2016-Dec-04 09:33N 36°53' W 075°54'1010.4
2016-Dec-04 08:34N 36°58' W 076°05'1212.2
2016-Dec-04 07:33N 36°55' W 076°20'3 2.6
2016-Dec-04 06:32N 36°53' W 076°21'0 0.0
2016-Dec-04 05:32N 36°53' W 076°21'0 0.0
2016-Dec-04 04:32N 36°53' W 076°21'0 0.0
2016-Dec-04 03:32N 36°53' W 076°21'0 0.0
2016-Dec-04 02:32N 36°53' W 076°21'0 0.0
2016-Dec-04 01:32N 36°53' W 076°21'0 0.0
2016-Dec-04 00:32N 36°53' W 076°21'0 0.0
2016-Dec-03 23:32N 36°53' W 076°21'0 0.0
2016-Dec-03 22:32N 36°53' W 076°21'0 0.0
2016-Dec-03 21:32N 36°53' W 076°21'0 0.0
2016-Dec-03 20:23N 36°53' W 076°21'0 0.0
2016-Dec-03 19:32N 36°53' W 076°21'0 0.0
2016-Dec-03 18:32N 36°53' W 076°21'0 0.0
2016-Dec-03 17:32N 36°53' W 076°21'0 0.0
2016-Dec-03 16:32N 36°53' W 076°21'0 0.0
2016-Dec-03 15:32N 36°53' W 076°21'0 0.0
2016-Dec-03 14:32N 36°53' W 076°21'0 0.0
2016-Dec-03 13:32N 36°53' W 076°21'6 5.7
2016-Dec-03 12:34N 36°58' W 076°20'1414.0
2016-Dec-03 11:33N 36°57' W 076°03'6315.6
2016-Dec-03 07:31N 37°60' W 076°12'4118.4
2016-Dec-03 05:18N 38°39' W 076°25'1418.2
2016-Dec-03 04:33N 38°53' W 076°24'1515.1
2016-Dec-03 03:33N 39°08' W 076°24'9 9.3
2016-Dec-03 02:33N 39°15' W 076°32'0 0.3
2016-Dec-03 01:32N 39°15' W 076°33'0 0.0
2016-Dec-03 00:32N 39°15' W 076°33'0 0.0
2016-Dec-02 23:32N 39°15' W 076°33'0 0.0
2016-Dec-02 22:32N 39°15' W 076°33'0 0.0
2016-Dec-02 21:32N 39°15' W 076°33'0 0.0
2016-Dec-02 20:32N 39°15' W 076°33'0 0.0
2016-Dec-02 19:32N 39°15' W 076°33'0 0.0
2016-Dec-02 18:32N 39°15' W 076°33'0 0.0
2016-Dec-02 17:32N 39°15' W 076°33'0 0.0
2016-Dec-02 16:32N 39°15' W 076°33'2 2.2
2016-Dec-02 15:33N 39°13' W 076°32'10 9.9
2016-Dec-02 14:33N 39°05' W 076°24'1716.9
2016-Dec-02 13:33N 38°48' W 076°25'11316.1
2016-Dec-02 06:31N 36°57' W 075°59'9 8.2
2016-Dec-02 05:24N 36°52' W 075°50'16512.5
2016-Dec-01 16:10N 39°10' W 073°56'1118.7
2016-Dec-01 15:33N 39°21' W 073°54'1818.5
2016-Dec-01 14:33N 39°40' W 073°52'1818.5
2016-Dec-01 13:33N 39°58' W 073°51'1514.4
2016-Dec-01 12:31N 40°13' W 073°49'9 9.6
2016-Dec-01 11:33N 40°22' W 073°49'8 8.1
2016-Dec-01 10:34N 40°29' W 073°55'1212.0
2016-Dec-01 09:33N 40°39' W 074°04'5 4.7
2016-Dec-01 08:33N 40°41' W 074°09'0 0.1
2016-Dec-01 07:32N 40°41' W 074°09'0 0.0
2016-Dec-01 06:29N 40°41' W 074°09'0 0.0
2016-Dec-01 05:26N 40°41' W 074°09'0 0.0
2016-Dec-01 04:32N 40°41' W 074°09'0 0.0
2016-Dec-01 03:32N 40°41' W 074°09'0 0.0
2016-Dec-01 02:32N 40°41' W 074°09'0 0.0
2016-Dec-01 01:32N 40°41' W 074°09'0 0.0
2016-Dec-01 00:29N 40°41' W 074°09'0 0.0
2016-Nov-30 23:32N 40°41' W 074°09'0 0.0
2016-Nov-30 22:29N 40°41' W 074°09'0 0.0
2016-Nov-30 21:32N 40°41' W 074°09'0 0.0
2016-Nov-30 20:32N 40°41' W 074°09'0 0.0
2016-Nov-30 19:32N 40°41' W 074°09'0 0.0
2016-Nov-30 18:32N 40°41' W 074°09'0 0.0
2016-Nov-30 17:32N 40°41' W 074°09'0 0.0
2016-Nov-30 16:32N 40°41' W 074°09'0 0.0
2016-Nov-30 15:32N 40°41' W 074°09'0 0.0
2016-Nov-30 14:32N 40°41' W 074°09'0 0.0
2016-Nov-30 13:32N 40°41' W 074°09'0 0.0
2016-Nov-30 12:32N 40°41' W 074°09'0 0.0
2016-Nov-30 11:32N 40°41' W 074°09'0 0.0
2016-Nov-30 10:32N 40°41' W 074°09'0 0.0
2016-Nov-30 09:32N 40°41' W 074°09'0 0.0
2016-Nov-30 08:32N 40°41' W 074°09'2 1.7
2016-Nov-30 07:33N 40°40' W 074°09'5 5.4
2016-Nov-30 06:33N 40°36' W 074°03'1211.6
2016-Nov-30 05:33N 40°28' W 073°52'7 6.4
2016-Nov-30 04:29N 40°25' W 073°44'  
Track history (hours):
 
Tides and Currents Weather Stations Pressure Air Temp Water Temp Dewpoint Dewpoint Depression Visibility Wind Speed Wind Dir Waves Ship Positions

Maersk Visby

Last reported at 2016-Dec-04 10:26 UTC. Time now 2016-Dec-11 06:14 UTC.
Position N 36°49' W 075°46'.

Length 180 m; draft 9.1 m.

Type: Ship (hazmat cat A). MMSI: 564979000.

Date/timePositionNaut miles runAvg speedWind from/ knotsBaromVisibWave heightAir tempDewpointWater temp
2016-Dec-04 10:26N 36°49' W 075°46'7 8.6
2016-Dec-04 09:33N 36°53' W 075°54'1010.4
2016-Dec-04 08:34N 36°58' W 076°05'1212.2
2016-Dec-04 07:33N 36°55' W 076°20'3 2.6
2016-Dec-04 06:32N 36°53' W 076°21'0 0.0
2016-Dec-04 05:32N 36°53' W 076°21'0 0.0
2016-Dec-04 04:32N 36°53' W 076°21'0 0.0
2016-Dec-04 03:32N 36°53' W 076°21'0 0.0
2016-Dec-04 02:32N 36°53' W 076°21'0 0.0
2016-Dec-04 01:32N 36°53' W 076°21'0 0.0
2016-Dec-04 00:32N 36°53' W 076°21'0 0.0
2016-Dec-03 23:32N 36°53' W 076°21'0 0.0
2016-Dec-03 22:32N 36°53' W 076°21'0 0.0
2016-Dec-03 21:32N 36°53' W 076°21'0 0.0
2016-Dec-03 20:23N 36°53' W 076°21'0 0.0
2016-Dec-03 19:32N 36°53' W 076°21'0 0.0
2016-Dec-03 18:32N 36°53' W 076°21'0 0.0
2016-Dec-03 17:32N 36°53' W 076°21'0 0.0
2016-Dec-03 16:32N 36°53' W 076°21'0 0.0
2016-Dec-03 15:32N 36°53' W 076°21'0 0.0
2016-Dec-03 14:32N 36°53' W 076°21'0 0.0
2016-Dec-03 13:32N 36°53' W 076°21'6 5.7
2016-Dec-03 12:34N 36°58' W 076°20'1414.0
2016-Dec-03 11:33N 36°57' W 076°03'6315.6
2016-Dec-03 07:31N 37°60' W 076°12'4118.4
2016-Dec-03 05:18N 38°39' W 076°25'1418.2
2016-Dec-03 04:33N 38°53' W 076°24'1515.1
2016-Dec-03 03:33N 39°08' W 076°24'9 9.3
2016-Dec-03 02:33N 39°15' W 076°32'0 0.3
2016-Dec-03 01:32N 39°15' W 076°33'0 0.0
2016-Dec-03 00:32N 39°15' W 076°33'0 0.0
2016-Dec-02 23:32N 39°15' W 076°33'0 0.0
2016-Dec-02 22:32N 39°15' W 076°33'0 0.0
2016-Dec-02 21:32N 39°15' W 076°33'0 0.0
2016-Dec-02 20:32N 39°15' W 076°33'0 0.0
2016-Dec-02 19:32N 39°15' W 076°33'0 0.0
2016-Dec-02 18:32N 39°15' W 076°33'0 0.0
2016-Dec-02 17:32N 39°15' W 076°33'0 0.0
2016-Dec-02 16:32N 39°15' W 076°33'2 2.2
2016-Dec-02 15:33N 39°13' W 076°32'10 9.9
2016-Dec-02 14:33N 39°05' W 076°24'1716.9
2016-Dec-02 13:33N 38°48' W 076°25'11316.1
2016-Dec-02 06:31N 36°57' W 075°59'9 8.2
2016-Dec-02 05:24N 36°52' W 075°50'16512.5
2016-Dec-01 16:10N 39°10' W 073°56'1118.7
2016-Dec-01 15:33N 39°21' W 073°54'1818.5
2016-Dec-01 14:33N 39°40' W 073°52'1818.5
2016-Dec-01 13:33N 39°58' W 073°51'1514.4
2016-Dec-01 12:31N 40°13' W 073°49'9 9.6
2016-Dec-01 11:33N 40°22' W 073°49'8 8.1
2016-Dec-01 10:34N 40°29' W 073°55'1212.0
2016-Dec-01 09:33N 40°39' W 074°04'5 4.7
2016-Dec-01 08:33N 40°41' W 074°09'0 0.1
2016-Dec-01 07:32N 40°41' W 074°09'0 0.0
2016-Dec-01 06:29N 40°41' W 074°09'0 0.0
2016-Dec-01 05:26N 40°41' W 074°09'0 0.0
2016-Dec-01 04:32N 40°41' W 074°09'0 0.0
2016-Dec-01 03:32N 40°41' W 074°09'0 0.0
2016-Dec-01 02:32N 40°41' W 074°09'0 0.0
2016-Dec-01 01:32N 40°41' W 074°09'0 0.0
2016-Dec-01 00:29N 40°41' W 074°09'0 0.0
2016-Nov-30 23:32N 40°41' W 074°09'0 0.0
2016-Nov-30 22:29N 40°41' W 074°09'0 0.0
2016-Nov-30 21:32N 40°41' W 074°09'0 0.0
2016-Nov-30 20:32N 40°41' W 074°09'0 0.0
2016-Nov-30 19:32N 40°41' W 074°09'0 0.0
2016-Nov-30 18:32N 40°41' W 074°09'0 0.0
2016-Nov-30 17:32N 40°41' W 074°09'0 0.0
2016-Nov-30 16:32N 40°41' W 074°09'0 0.0
2016-Nov-30 15:32N 40°41' W 074°09'0 0.0
2016-Nov-30 14:32N 40°41' W 074°09'0 0.0
2016-Nov-30 13:32N 40°41' W 074°09'0 0.0
2016-Nov-30 12:32N 40°41' W 074°09'0 0.0
2016-Nov-30 11:32N 40°41' W 074°09'0 0.0
2016-Nov-30 10:32N 40°41' W 074°09'0 0.0
2016-Nov-30 09:32N 40°41' W 074°09'0 0.0
2016-Nov-30 08:32N 40°41' W 074°09'2 1.7
2016-Nov-30 07:33N 40°40' W 074°09'5 5.4
2016-Nov-30 06:33N 40°36' W 074°03'1211.6
2016-Nov-30 05:33N 40°28' W 073°52'7 6.4
2016-Nov-30 04:29N 40°25' W 073°44'  

Dump ship's entire track history